Time;durP1;ratioP1;P1;durP2;ratioP2;P2;SDS_P1;SDS_P2;PMS_P1;PMS_P2;Temp;Humidity;BMP_temperature;BMP_pressure;BME280_temperature;BME280_humidity;BME280_pressure;Samples;Min_cycle;Max_cycle;Signal;HPM_P1;HPM_P2
2023/04/27 00:00:22;;;;;;;;;;;12.00;75.60;;;;;;5027684;28;19928;-73
2023/04/27 00:02:48;;;;;;;;;;;12.00;75.50;;;;;;5031543;28;19956;-73
2023/04/27 00:05:13;;;;;;;;;;;12.10;75.50;;;;;;5031453;28;20001;-72
2023/04/27 00:07:39;;;;;;;;;;;12.00;75.50;;;;;;5031599;28;20358;-73
2023/04/27 00:10:05;;;;;;;;;;;12.00;75.50;;;;;;5031396;28;19913;-73
2023/04/27 00:12:31;;;;;;;;;;;12.00;75.70;;;;;;5031379;28;20007;-73
2023/04/27 00:14:56;;;;;;;;;;;12.00;75.70;;;;;;5031307;28;20016;-73
2023/04/27 00:17:22;;;;;;;;;;;12.00;75.70;;;;;;5031044;28;19917;-73
2023/04/27 00:19:48;;;;;;;;;;;12.00;75.80;;;;;;5031559;28;19924;-73
2023/04/27 00:22:13;;;;;;;;;;;12.00;75.80;;;;;;5031235;28;20297;-73
2023/04/27 00:24:40;;;;;;;;;;;12.00;75.90;;;;;;5031157;28;19955;-73
2023/04/27 00:27:06;;;;;;;;;;;12.00;75.80;;;;;;5031000;28;20059;-73
2023/04/27 00:29:31;;;;;;;;;;;12.10;75.80;;;;;;5031029;28;20411;-73
2023/04/27 00:31:57;;;;;;;;;;;12.10;75.90;;;;;;5030997;28;19924;-72
2023/04/27 00:34:22;;;;;;;;;;;12.10;75.90;;;;;;5030733;28;19929;-73
2023/04/27 00:36:48;;;;;;;;;;;12.10;76.00;;;;;;5030901;28;19914;-73
2023/04/27 00:39:14;;;;;;;;;;;12.10;76.00;;;;;;5030779;28;20463;-73
2023/04/27 00:41:39;;;;;;;;;;;12.10;75.90;;;;;;5030906;28;19960;-73
2023/04/27 00:44:05;;;;;;;;;;;12.10;75.80;;;;;;5030839;28;19914;-73
2023/04/27 00:46:31;;;;;;;;;;;12.10;75.90;;;;;;5030793;28;19917;-73
2023/04/27 00:48:57;;;;;;;;;;;12.10;75.90;;;;;;5030645;28;19917;-73
2023/04/27 00:51:26;;;;;;;;;;;12.00;75.90;;;;;;5012849;28;19924;-73
2023/04/27 00:53:52;;;;;;;;;;;12.00;76.00;;;;;;5012731;28;20409;-72
2023/04/27 00:56:18;;;;;;;;;;;12.00;76.10;;;;;;5012749;28;20020;-72
2023/04/27 00:58:44;;;;;;;;;;;12.00;76.00;;;;;;5030405;28;20005;-73
2023/04/27 01:01:10;;;;;;;;;;;12.00;75.90;;;;;;5030469;28;20643;-73
2023/04/27 01:03:35;;;;;;;;;;;11.90;75.90;;;;;;5030477;28;19913;-73
2023/04/27 01:06:01;;;;;;;;;;;12.00;76.10;;;;;;5030301;28;19913;-73
2023/04/27 01:08:27;;;;;;;;;;;12.00;76.00;;;;;;5012626;28;19921;-73
2023/04/27 01:10:53;;;;;;;;;;;12.00;76.00;;;;;;5030271;28;20293;-73
2023/04/27 01:13:19;;;;;;;;;;;12.00;76.00;;;;;;5029058;28;20012;-73
2023/04/27 01:15:44;;;;;;;;;;;12.10;75.90;;;;;;5029978;28;20346;-73
2023/04/27 01:18:10;;;;;;;;;;;12.10;75.80;;;;;;5030029;28;19923;-73
2023/04/27 01:20:37;;;;;;;;;;;12.10;75.70;;;;;;5030124;28;19921;-73
2023/04/27 01:23:03;;;;;;;;;;;12.00;75.70;;;;;;5030037;28;20381;-73
2023/04/27 01:25:28;;;;;;;;;;;12.00;75.80;;;;;;5029966;28;19916;-73
2023/04/27 01:27:54;;;;;;;;;;;12.00;75.90;;;;;;5030442;28;19948;-73
2023/04/27 01:30:21;;;;;;;;;;;11.90;75.80;;;;;;5029887;28;19916;-73
2023/04/27 01:32:47;;;;;;;;;;;11.90;75.90;;;;;;5029671;28;19913;-73
2023/04/27 01:35:12;;;;;;;;;;;11.90;75.80;;;;;;5029790;28;20192;-73
2023/04/27 01:37:38;;;;;;;;;;;12.00;75.80;;;;;;5029842;28;19920;-73
2023/04/27 01:40:05;;;;;;;;;;;12.00;75.80;;;;;;5029712;28;20004;-73
2023/04/27 01:42:31;;;;;;;;;;;11.90;75.80;;;;;;5029626;28;19913;-73
2023/04/27 01:44:56;;;;;;;;;;;12.00;75.80;;;;;;5029615;28;19934;-72
2023/04/27 01:47:22;;;;;;;;;;;12.00;75.80;;;;;;5011562;28;19964;-73
2023/04/27 01:49:47;;;;;;;;;;;11.90;75.80;;;;;;5011892;28;19970;-73
2023/04/27 01:52:13;;;;;;;;;;;11.90;75.80;;;;;;5011897;28;20372;-73
2023/04/27 01:54:38;;;;;;;;;;;11.90;75.80;;;;;;5029451;28;19924;-73
2023/04/27 01:57:04;;;;;;;;;;;11.90;75.90;;;;;;5029769;28;20024;-73
2023/04/27 01:59:30;;;;;;;;;;;11.90;76.00;;;;;;5029323;28;19921;-73
2023/04/27 02:01:55;;;;;;;;;;;12.00;76.00;;;;;;5011797;28;19913;-73
2023/04/27 02:04:21;;;;;;;;;;;11.90;75.90;;;;;;5029295;28;20010;-73
2023/04/27 02:06:46;;;;;;;;;;;12.00;75.90;;;;;;5011351;28;19921;-73
2023/04/27 02:09:12;;;;;;;;;;;12.00;75.90;;;;;;5029236;28;19963;-73
2023/04/27 02:11:38;;;;;;;;;;;12.00;75.80;;;;;;5029146;28;20016;-73
2023/04/27 02:14:03;;;;;;;;;;;12.00;75.70;;;;;;5029384;28;20004;-73
2023/04/27 02:16:29;;;;;;;;;;;12.00;75.70;;;;;;5011267;28;19917;-73
2023/04/27 02:18:55;;;;;;;;;;;12.10;75.80;;;;;;5029012;28;19953;-73
2023/04/27 02:21:20;;;;;;;;;;;12.10;75.80;;;;;;5029015;28;20012;-73
2023/04/27 02:23:46;;;;;;;;;;;12.00;75.70;;;;;;5010887;28;19967;-73
2023/04/27 02:26:15;;;;;;;;;;;12.00;75.80;;;;;;5028761;28;20277;-73
2023/04/27 02:28:41;;;;;;;;;;;12.00;75.90;;;;;;5028805;28;20324;-73
2023/04/27 02:31:07;;;;;;;;;;;12.00;76.00;;;;;;5028721;28;19921;-73
2023/04/27 02:33:32;;;;;;;;;;;11.90;76.00;;;;;;5028512;28;19925;-73
2023/04/27 02:35:58;;;;;;;;;;;12.00;76.00;;;;;;5028628;28;19917;-73
2023/04/27 02:38:23;;;;;;;;;;;12.10;76.00;;;;;;5010948;28;19966;-73
2023/04/27 02:40:53;;;;;;;;;;;12.10;75.90;;;;;;5028506;28;19913;-73
2023/04/27 02:43:19;;;;;;;;;;;12.20;75.80;;;;;;5028614;28;19971;-73
2023/04/27 02:45:45;;;;;;;;;;;12.20;75.70;;;;;;5010739;28;19955;-73
2023/04/27 02:48:10;;;;;;;;;;;12.30;75.70;;;;;;5028438;28;19971;-73
2023/04/27 02:50:39;;;;;;;;;;;12.30;75.70;;;;;;5028402;28;20392;-73
2023/04/27 02:53:05;;;;;;;;;;;12.30;75.60;;;;;;5028441;28;19909;-73
2023/04/27 02:55:30;;;;;;;;;;;12.30;75.60;;;;;;5028268;28;20258;-73
2023/04/27 02:57:56;;;;;;;;;;;12.30;75.70;;;;;;5028199;28;20019;-73
2023/04/27 03:00:21;;;;;;;;;;;12.30;75.80;;;;;;5028198;28;19921;-73
2023/04/27 03:02:47;;;;;;;;;;;12.30;75.90;;;;;;5028165;28;19935;-73
2023/04/27 03:05:12;;;;;;;;;;;12.30;75.90;;;;;;5028142;28;19914;-73
2023/04/27 03:07:38;;;;;;;;;;;12.40;75.90;;;;;;5028160;28;20211;-72
2023/04/27 03:10:04;;;;;;;;;;;12.30;75.90;;;;;;5028102;28;19913;-73
2023/04/27 03:12:29;;;;;;;;;;;12.40;76.00;;;;;;5028491;28;19909;-73
2023/04/27 03:14:55;;;;;;;;;;;12.30;76.00;;;;;;5010326;28;19913;-73
2023/04/27 03:17:20;;;;;;;;;;;12.40;76.10;;;;;;5027945;28;19913;-73
2023/04/27 03:19:47;;;;;;;;;;;12.30;76.10;;;;;;5027950;28;19975;-73
2023/04/27 03:22:13;;;;;;;;;;;12.40;76.10;;;;;;5027917;28;19914;-72
2023/04/27 03:24:39;;;;;;;;;;;12.30;75.90;;;;;;5027901;28;19913;-73
2023/04/27 03:27:04;;;;;;;;;;;12.40;76.00;;;;;;5027811;28;19920;-73
2023/04/27 03:29:30;;;;;;;;;;;12.40;75.90;;;;;;5027978;28;19932;-73
2023/04/27 03:31:56;;;;;;;;;;;12.40;75.80;;;;;;5027883;28;20000;-73
2023/04/27 03:34:22;;;;;;;;;;;12.40;75.90;;;;;;5027965;28;19925;-73
2023/04/27 03:36:48;;;;;;;;;;;12.40;75.90;;;;;;5027036;28;20043;-73
2023/04/27 03:39:13;;;;;;;;;;;12.40;75.90;;;;;;5027730;28;19918;-73
2023/04/27 03:41:39;;;;;;;;;;;12.40;75.80;;;;;;5027727;28;20446;-73
2023/04/27 03:44:05;;;;;;;;;;;12.30;75.90;;;;;;5028262;28;19921;-73
2023/04/27 03:46:31;;;;;;;;;;;12.30;76.00;;;;;;5027756;28;19914;-73
2023/04/27 03:48:57;;;;;;;;;;;12.30;76.00;;;;;;5027983;28;19979;-73
2023/04/27 03:51:22;;;;;;;;;;;12.40;76.00;;;;;;5027659;28;19913;-73
2023/04/27 03:53:48;;;;;;;;;;;12.40;76.00;;;;;;5027637;28;20000;-73
2023/04/27 03:56:14;;;;;;;;;;;12.40;76.00;;;;;;5027620;28;19921;-73
2023/04/27 03:58:39;;;;;;;;;;;12.40;76.00;;;;;;5027574;28;19924;-73
2023/04/27 04:01:05;;;;;;;;;;;12.40;76.00;;;;;;5027596;28;20341;-73
2023/04/27 04:03:30;;;;;;;;;;;12.40;76.00;;;;;;5027579;28;19925;-74
2023/04/27 04:05:56;;;;;;;;;;;12.40;76.10;;;;;;5027618;28;19913;-73
2023/04/27 04:08:22;;;;;;;;;;;12.40;76.10;;;;;;5027519;28;19956;-73
2023/04/27 04:10:47;;;;;;;;;;;12.40;76.00;;;;;;5009845;28;19975;-73
2023/04/27 04:13:13;;;;;;;;;;;12.40;76.10;;;;;;5027425;28;19920;-74
2023/04/27 04:15:38;;;;;;;;;;;12.40;76.20;;;;;;5027757;28;20384;-73
2023/04/27 04:18:04;;;;;;;;;;;12.40;76.10;;;;;;5027508;28;20163;-73
2023/04/27 04:20:30;;;;;;;;;;;12.40;76.10;;;;;;5027367;28;19957;-73
2023/04/27 04:22:55;;;;;;;;;;;12.40;76.10;;;;;;5027468;28;19917;-73
2023/04/27 04:25:21;;;;;;;;;;;12.40;76.10;;;;;;5027383;28;19913;-73
2023/04/27 04:27:47;;;;;;;;;;;12.40;76.10;;;;;;5027349;28;20169;-73
2023/04/27 04:30:13;;;;;;;;;;;12.40;76.10;;;;;;5027322;28;19916;-72
2023/04/27 04:32:39;;;;;;;;;;;12.40;76.10;;;;;;5027205;28;19917;-73
2023/04/27 04:35:05;;;;;;;;;;;12.40;76.20;;;;;;5027347;28;20004;-73
2023/04/27 04:37:36;;;;;;;;;;;12.40;76.20;;;;;;5027124;28;19913;-72
2023/04/27 04:40:09;;;;;;;;;;;12.30;76.10;;;;;;5027129;28;19913;-73
2023/04/27 04:42:35;;;;;;;;;;;12.30;76.20;;;;;;5027151;28;20428;-73
2023/04/27 04:45:02;;;;;;;;;;;12.30;76.20;;;;;;5027225;28;19917;-73
2023/04/27 04:47:30;;;;;;;;;;;12.40;76.20;;;;;;5028852;28;19928;-73
2023/04/27 04:49:56;;;;;;;;;;;12.40;76.20;;;;;;5030624;28;20003;-72
2023/04/27 04:52:22;;;;;;;;;;;12.40;76.20;;;;;;5030531;28;19972;-73
2023/04/27 04:54:50;;;;;;;;;;;12.30;76.20;;;;;;5030516;28;19913;-73
2023/04/27 04:57:15;;;;;;;;;;;12.30;76.30;;;;;;5030294;28;19909;-72
2023/04/27 04:59:41;;;;;;;;;;;12.20;76.30;;;;;;5030340;28;19924;-73
2023/04/27 05:02:06;;;;;;;;;;;12.20;76.40;;;;;;5030473;28;19956;-73
2023/04/27 05:04:32;;;;;;;;;;;12.20;76.50;;;;;;5030759;28;20354;-73
2023/04/27 05:06:58;;;;;;;;;;;12.20;77.00;;;;;;5030393;28;20280;-73
2023/04/27 05:09:24;;;;;;;;;;;12.20;76.50;;;;;;5030760;28;19920;-73
2023/04/27 05:11:50;;;;;;;;;;;12.10;76.50;;;;;;5030308;28;19917;-73
2023/04/27 05:14:15;;;;;;;;;;;12.10;76.50;;;;;;5030249;28;19913;-73
2023/04/27 05:16:41;;;;;;;;;;;12.10;76.50;;;;;;5030011;28;19910;-73
2023/04/27 05:19:07;;;;;;;;;;;12.00;76.50;;;;;;5029885;28;19936;-73
2023/04/27 05:21:33;;;;;;;;;;;12.00;76.60;;;;;;5012180;28;19913;-73
2023/04/27 05:23:58;;;;;;;;;;;12.00;76.60;;;;;;5029803;28;19917;-73
2023/04/27 05:26:24;;;;;;;;;;;12.00;76.70;;;;;;5011933;28;20435;-73
2023/04/27 05:28:50;;;;;;;;;;;12.10;76.60;;;;;;5029816;28;19917;-73
2023/04/27 05:31:15;;;;;;;;;;;12.20;76.60;;;;;;5030031;28;19915;-72
2023/04/27 05:33:41;;;;;;;;;;;12.20;76.50;;;;;;5029641;28;19944;-73
2023/04/27 05:36:06;;;;;;;;;;;12.20;76.40;;;;;;5029666;28;20373;-73
2023/04/27 05:38:33;;;;;;;;;;;12.20;76.30;;;;;;5029504;28;19924;-73
2023/04/27 05:40:59;;;;;;;;;;;12.30;76.40;;;;;;5029790;28;20289;-73
2023/04/27 05:43:26;;;;;;;;;;;12.30;76.40;;;;;;5029025;28;20281;-73
2023/04/27 05:45:52;;;;;;;;;;;12.30;76.50;;;;;;5029497;28;19913;-72
2023/04/27 05:48:18;;;;;;;;;;;12.30;76.40;;;;;;5029606;28;19955;-73
2023/04/27 05:50:44;;;;;;;;;;;12.30;76.40;;;;;;5029450;28;19917;-73
2023/04/27 05:53:10;;;;;;;;;;;12.30;76.40;;;;;;5029353;28;19909;-73
2023/04/27 05:55:36;;;;;;;;;;;12.30;76.40;;;;;;5029246;28;19909;-73
2023/04/27 05:58:02;;;;;;;;;;;12.30;76.40;;;;;;5028770;28;19959;-72
2023/04/27 06:00:28;;;;;;;;;;;12.20;76.30;;;;;;5028721;28;19924;-73
2023/04/27 06:02:53;;;;;;;;;;;12.20;76.40;;;;;;5029378;28;19917;-73
2023/04/27 06:05:19;;;;;;;;;;;12.20;76.50;;;;;;5029071;28;20320;-73
2023/04/27 06:07:45;;;;;;;;;;;12.20;76.40;;;;;;5028992;28;19913;-73
2023/04/27 06:10:10;;;;;;;;;;;12.20;76.50;;;;;;5010978;28;19917;-73
2023/04/27 06:12:36;;;;;;;;;;;12.20;76.60;;;;;;5011246;28;20427;-72
2023/04/27 06:15:07;;;;;;;;;;;12.20;76.50;;;;;;5028882;28;19917;-73
2023/04/27 06:17:34;;;;;;;;;;;12.20;76.60;;;;;;5028784;28;19913;-73
2023/04/27 06:19:59;;;;;;;;;;;12.20;76.60;;;;;;5011028;28;19916;-73
2023/04/27 06:22:26;;;;;;;;;;;12.20;76.50;;;;;;5028696;28;19982;-73
2023/04/27 06:24:51;;;;;;;;;;;12.30;76.60;;;;;;5028870;28;19917;-73
2023/04/27 06:27:17;;;;;;;;;;;12.30;76.60;;;;;;5010979;28;20416;-73
2023/04/27 06:29:42;;;;;;;;;;;12.30;76.60;;;;;;5028521;28;19917;-73
2023/04/27 06:32:08;;;;;;;;;;;12.30;76.60;;;;;;5028861;28;20266;-73
2023/04/27 06:34:34;;;;;;;;;;;12.30;76.60;;;;;;5028519;28;20010;-73
2023/04/27 06:36:59;;;;;;;;;;;12.30;76.60;;;;;;5028823;28;19996;-73
2023/04/27 06:39:25;;;;;;;;;;;12.30;76.70;;;;;;5028130;28;19917;-72
2023/04/27 06:41:51;;;;;;;;;;;12.40;76.70;;;;;;5028698;28;20397;-70
2023/04/27 06:44:16;;;;;;;;;;;12.40;76.70;;;;;;5010867;28;19921;-76
2023/04/27 06:46:42;;;;;;;;;;;12.40;76.60;;;;;;5010363;28;19913;-76
2023/04/27 06:49:07;;;;;;;;;;;12.40;76.70;;;;;;5028209;28;19917;-76
2023/04/27 06:51:33;;;;;;;;;;;12.40;76.70;;;;;;5010360;28;20377;-76
2023/04/27 06:53:58;;;;;;;;;;;12.50;76.70;;;;;;5028057;28;19948;-76
2023/04/27 06:56:24;;;;;;;;;;;12.50;76.70;;;;;;5027921;28;19921;-76
2023/04/27 06:58:50;;;;;;;;;;;12.50;76.80;;;;;;5010032;28;19913;-75
2023/04/27 07:01:15;;;;;;;;;;;12.60;76.70;;;;;;5027702;28;19992;-75
2023/04/27 07:03:41;;;;;;;;;;;12.60;76.70;;;;;;5027796;28;19963;-76
2023/04/27 07:06:06;;;;;;;;;;;12.60;76.70;;;;;;5027868;28;19929;-76
2023/04/27 07:08:32;;;;;;;;;;;12.60;76.70;;;;;;5027978;28;19922;-76
2023/04/27 07:10:58;;;;;;;;;;;12.60;76.70;;;;;;5009270;28;19913;-76
2023/04/27 07:13:23;;;;;;;;;;;12.60;76.70;;;;;;5027828;28;20374;-74
2023/04/27 07:15:53;;;;;;;;;;;12.60;76.80;;;;;;5027534;28;19928;-75
2023/04/27 07:18:18;;;;;;;;;;;12.60;76.80;;;;;;5027534;28;19913;-76
2023/04/27 07:20:44;;;;;;;;;;;12.60;76.90;;;;;;5027684;28;20319;-76
2023/04/27 07:23:09;;;;;;;;;;;12.70;76.80;;;;;;5027726;28;19913;-76
2023/04/27 07:25:36;;;;;;;;;;;12.60;76.80;;;;;;4993425;28;20058;-76
2023/04/27 07:28:01;;;;;;;;;;;12.80;77.00;;;;;;5027622;28;19959;-76
2023/04/27 07:30:29;;;;;;;;;;;12.80;77.10;;;;;;5027600;28;19917;-76
2023/04/27 07:32:55;;;;;;;;;;;12.90;77.10;;;;;;5009870;28;19925;-76
2023/04/27 07:35:21;;;;;;;;;;;13.10;77.30;;;;;;5027765;28;20024;-76
2023/04/27 07:37:46;;;;;;;;;;;13.50;77.60;;;;;;5009459;28;19914;-76
2023/04/27 07:40:15;;;;;;;;;;;13.80;77.30;;;;;;5027694;28;20013;-76
2023/04/27 07:42:41;;;;;;;;;;;14.10;77.30;;;;;;5010243;28;19924;-76
2023/04/27 07:45:09;;;;;;;;;;;14.30;77.20;;;;;;5027060;28;19933;-74
2023/04/27 07:47:35;;;;;;;;;;;14.40;77.10;;;;;;5027047;28;19917;-76
2023/04/27 07:50:00;;;;;;;;;;;14.60;77.00;;;;;;5027110;28;19996;-76
2023/04/27 07:52:26;;;;;;;;;;;14.70;76.80;;;;;;5009153;28;19924;-76
2023/04/27 07:54:51;;;;;;;;;;;14.60;76.60;;;;;;5026895;28;19913;-76
2023/04/27 07:57:17;;;;;;;;;;;14.50;76.60;;;;;;5009446;28;19914;-76
2023/04/27 07:59:43;;;;;;;;;;;14.40;76.80;;;;;;5009048;28;19923;-76
2023/04/27 08:02:08;;;;;;;;;;;14.50;77.40;;;;;;5027133;28;19959;-77
2023/04/27 08:04:34;;;;;;;;;;;15.10;78.40;;;;;;5026981;28;19925;-76
2023/04/27 08:07:00;;;;;;;;;;;15.90;78.00;;;;;;5027032;28;19968;-77
2023/04/27 08:09:25;;;;;;;;;;;16.30;77.00;;;;;;5009030;28;20012;-76
2023/04/27 08:11:51;;;;;;;;;;;16.20;76.60;;;;;;5027004;28;19935;-76
2023/04/27 08:14:17;;;;;;;;;;;16.20;76.60;;;;;;5027126;28;20372;-77
2023/04/27 08:16:43;;;;;;;;;;;16.00;76.50;;;;;;5026885;28;19913;-77
2023/04/27 08:19:09;;;;;;;;;;;15.70;76.50;;;;;;5026733;28;20023;-72
2023/04/27 08:21:35;;;;;;;;;;;15.40;76.70;;;;;;5027690;28;20002;-72
2023/04/27 08:24:01;;;;;;;;;;;15.20;76.90;;;;;;5030731;28;19913;-71
2023/04/27 08:26:27;;;;;;;;;;;15.10;76.90;;;;;;5030930;28;19918;-71
2023/04/27 08:28:52;;;;;;;;;;;14.90;76.90;;;;;;5030915;28;19913;-72
2023/04/27 08:31:18;;;;;;;;;;;14.70;76.90;;;;;;5030426;28;19919;-72
2023/04/27 08:33:43;;;;;;;;;;;14.60;77.00;;;;;;5035788;28;19920;-71
2023/04/27 08:36:09;;;;;;;;;;;14.40;76.90;;;;;;5010365;28;19917;-72
2023/04/27 08:38:35;;;;;;;;;;;14.20;77.00;;;;;;5042414;28;20339;-71
2023/04/27 08:41:00;;;;;;;;;;;13.90;77.00;;;;;;5023097;28;20412;-71
2023/04/27 08:43:31;;;;;;;;;;;13.80;77.20;;;;;;5043081;28;19921;-71
2023/04/27 08:45:56;;;;;;;;;;;13.70;77.40;;;;;;5042188;28;19975;-71
2023/04/27 08:48:22;;;;;;;;;;;13.60;77.40;;;;;;5039083;28;19928;-71
2023/04/27 08:50:49;;;;;;;;;;;13.70;77.50;;;;;;5039650;28;20008;-70
2023/04/27 08:53:16;;;;;;;;;;;13.70;77.70;;;;;;5021347;28;19913;-71
2023/04/27 08:55:41;;;;;;;;;;;13.90;77.70;;;;;;5039044;28;19913;-71
2023/04/27 08:58:07;;;;;;;;;;;14.10;77.60;;;;;;5041789;28;19913;-71
2023/04/27 09:00:42;;;;;;;;;;;14.30;77.70;;;;;;5041495;28;20377;-70
2023/04/27 09:03:17;;;;;;;;;;;14.50;77.60;;;;;;5044816;28;19913;-69
2023/04/27 09:05:45;;;;;;;;;;;14.70;77.40;;;;;;5045984;28;19920;-71
2023/04/27 09:08:10;;;;;;;;;;;14.90;77.30;;;;;;5050659;28;19924;-69
2023/04/27 09:10:46;;;;;;;;;;;15.10;77.60;;;;;;5032780;28;19917;-69
2023/04/27 09:13:12;;;;;;;;;;;15.50;77.80;;;;;;5046473;28;19938;-69
2023/04/27 09:15:44;;;;;;;;;;;16.00;77.70;;;;;;5050625;28;20258;-71
2023/04/27 09:18:18;;;;;;;;;;;16.40;78.00;;;;;;5014703;28;19921;-69
2023/04/27 09:20:47;;;;;;;;;;;16.90;78.00;;;;;;5042928;28;19974;-69
2023/04/27 09:23:30;;;;;;;;;;;17.20;77.70;;;;;;5020754;28;19916;-69
2023/04/27 09:26:00;;;;;;;;;;;17.30;77.50;;;;;;5047478;28;19957;-69
2023/04/27 09:28:29;;;;;;;;;;;17.20;77.80;;;;;;5050314;28;19908;-69
2023/04/27 09:30:56;;;;;;;;;;;17.10;76.90;;;;;;5032817;28;19966;-70
2023/04/27 09:33:23;;;;;;;;;;;16.70;76.80;;;;;;5031709;28;19925;-70
2023/04/27 09:35:49;;;;;;;;;;;16.30;76.90;;;;;;5050556;28;19970;-70
2023/04/27 09:38:16;;;;;;;;;;;16.00;76.90;;;;;;5041844;28;19932;-70
2023/04/27 09:40:41;;;;;;;;;;;15.60;77.00;;;;;;5020397;28;19923;-67
2023/04/27 09:43:07;;;;;;;;;;;15.20;77.20;;;;;;5039922;28;19913;-68
2023/04/27 09:45:32;;;;;;;;;;;15.00;77.50;;;;;;5041597;28;19917;-68
2023/04/27 09:47:59;;;;;;;;;;;14.80;77.60;;;;;;5038381;28;19913;-69
2023/04/27 09:50:25;;;;;;;;;;;14.70;77.70;;;;;;5039221;28;19909;-69
2023/04/27 09:52:51;;;;;;;;;;;14.60;77.80;;;;;;5021605;28;19986;-70
2023/04/27 09:55:18;;;;;;;;;;;14.60;78.00;;;;;;5040611;28;20634;-70
2023/04/27 09:57:54;;;;;;;;;;;14.60;78.10;;;;;;5043379;28;19913;-70
2023/04/27 10:00:20;;;;;;;;;;;14.70;78.20;;;;;;5040555;28;20003;-69
2023/04/27 10:02:55;;;;;;;;;;;14.90;78.10;;;;;;5036242;28;19955;-69
2023/04/27 10:05:28;;;;;;;;;;;15.10;78.40;;;;;;5037598;28;20048;-69
2023/04/27 10:07:54;;;;;;;;;;;15.40;78.50;;;;;;5040471;28;19909;-70
2023/04/27 10:10:19;;;;;;;;;;;15.60;78.20;;;;;;5040569;28;20062;-70
2023/04/27 10:13:00;;;;;;;;;;;15.70;77.90;;;;;;5042796;28;20353;-70
2023/04/27 10:15:27;;;;;;;;;;;15.60;77.90;;;;;;5037312;28;19936;-71
2023/04/27 10:17:54;;;;;;;;;;;15.70;78.00;;;;;;5039629;28;19913;-73
2023/04/27 10:20:36;;;;;;;;;;;15.70;78.00;;;;;;5040131;28;20448;-71
2023/04/27 10:23:02;;;;;;;;;;;15.80;78.20;;;;;;5024397;28;19909;-72
2023/04/27 10:25:37;;;;;;;;;;;15.90;78.30;;;;;;5038786;28;19929;-72
2023/04/27 10:28:03;;;;;;;;;;;16.00;78.50;;;;;;5020155;28;20316;-73
2023/04/27 10:30:33;;;;;;;;;;;16.20;78.30;;;;;;5019635;28;19933;-70
2023/04/27 10:33:02;;;;;;;;;;;16.30;78.00;;;;;;5037356;28;19917;-71
2023/04/27 10:35:34;;;;;;;;;;;16.30;78.20;;;;;;5040629;28;19909;-73
2023/04/27 10:38:16;;;;;;;;;;;16.30;78.00;;;;;;5017397;28;20334;-71
2023/04/27 10:40:53;;;;;;;;;;;16.10;77.90;;;;;;5037890;28;19936;-70
2023/04/27 10:43:22;;;;;;;;;;;16.00;77.90;;;;;;5037927;28;19955;-71
2023/04/27 10:45:48;;;;;;;;;;;15.90;78.10;;;;;;5036103;28;19913;-74
2023/04/27 10:48:14;;;;;;;;;;;15.80;78.10;;;;;;5039415;28;20384;-70
2023/04/27 10:50:40;;;;;;;;;;;15.80;78.10;;;;;;5040562;28;20310;-70
2023/04/27 10:53:06;;;;;;;;;;;15.80;77.90;;;;;;5040172;28;20076;-69
2023/04/27 10:55:32;;;;;;;;;;;15.70;78.00;;;;;;5037672;28;19944;-71
2023/04/27 10:57:58;;;;;;;;;;;15.70;78.20;;;;;;5039596;28;20374;-72
2023/04/27 11:00:26;;;;;;;;;;;15.90;78.50;;;;;;5037336;28;20274;-71
2023/04/27 11:02:53;;;;;;;;;;;16.10;78.40;;;;;;5019137;28;19945;-70
2023/04/27 11:05:19;;;;;;;;;;;16.30;78.20;;;;;;5036798;28;19909;-71
2023/04/27 11:07:48;;;;;;;;;;;16.40;78.00;;;;;;5038182;28;20265;-73
2023/04/27 11:10:14;;;;;;;;;;;16.40;78.00;;;;;;5039630;28;19913;-72
2023/04/27 11:12:39;;;;;;;;;;;16.40;77.90;;;;;;5040007;28;19967;-72
2023/04/27 11:15:06;;;;;;;;;;;16.40;78.10;;;;;;5012058;28;19913;-72
2023/04/27 11:17:31;;;;;;;;;;;16.40;78.10;;;;;;5031141;28;20007;-71
2023/04/27 11:19:57;;;;;;;;;;;16.20;78.10;;;;;;5039308;28;20004;-70
2023/04/27 11:22:23;;;;;;;;;;;16.10;78.40;;;;;;5028042;28;19913;-70
2023/04/27 11:24:49;;;;;;;;;;;16.10;78.10;;;;;;5047973;28;19913;-70
2023/04/27 11:27:16;;;;;;;;;;;16.10;78.10;;;;;;5030322;28;19936;-70
2023/04/27 11:29:42;;;;;;;;;;;16.00;78.00;;;;;;5014144;28;19920;-70
2023/04/27 11:32:07;;;;;;;;;;;15.90;77.90;;;;;;5029977;28;19913;-70
2023/04/27 11:34:37;;;;;;;;;;;15.70;78.20;;;;;;5048360;28;19959;-70
2023/04/27 11:37:07;;;;;;;;;;;15.50;77.70;;;;;;5048372;28;19921;-71
2023/04/27 11:39:34;;;;;;;;;;;15.40;77.90;;;;;;5048327;28;19963;-69
2023/04/27 11:42:16;;;;;;;;;;;15.30;77.90;;;;;;5030497;28;20009;-70
2023/04/27 11:44:49;;;;;;;;;;;15.10;78.00;;;;;;5039468;28;19913;-70
2023/04/27 11:47:15;;;;;;;;;;;15.10;78.30;;;;;;5036623;28;20371;-69
2023/04/27 11:49:45;;;;;;;;;;;15.10;78.20;;;;;;5038410;28;19917;-71
2023/04/27 11:52:12;;;;;;;;;;;15.10;78.30;;;;;;5042914;28;20051;-70
2023/04/27 11:54:37;;;;;;;;;;;15.00;78.20;;;;;;5018951;28;19932;-70
2023/04/27 11:57:04;;;;;;;;;;;15.00;78.20;;;;;;5039030;28;19924;-69
2023/04/27 11:59:30;;;;;;;;;;;15.10;78.40;;;;;;5042199;28;19914;-71
2023/04/27 12:01:56;;;;;;;;;;;15.10;78.20;;;;;;5040351;28;19917;-70
2023/04/27 12:04:21;;;;;;;;;;;15.10;78.10;;;;;;5038884;28;19917;-70
2023/04/27 12:06:47;;;;;;;;;;;15.10;77.90;;;;;;5042467;28;20011;-72
2023/04/27 12:09:12;;;;;;;;;;;15.00;77.90;;;;;;5011452;28;19913;-73
2023/04/27 12:11:38;;;;;;;;;;;15.00;78.00;;;;;;5019161;28;19917;-72
2023/04/27 12:14:03;;;;;;;;;;;14.90;78.10;;;;;;5040382;28;19917;-72
2023/04/27 12:16:30;;;;;;;;;;;14.90;78.10;;;;;;5022876;28;20003;-71
2023/04/27 12:18:55;;;;;;;;;;;14.90;78.20;;;;;;5040078;28;19935;-72
2023/04/27 12:21:21;;;;;;;;;;;14.90;78.30;;;;;;5041328;28;20287;-71
2023/04/27 12:23:46;;;;;;;;;;;14.90;78.30;;;;;;5043203;28;20338;-72
2023/04/27 12:26:12;;;;;;;;;;;15.00;78.20;;;;;;5040231;28;19913;-71
2023/04/27 12:28:38;;;;;;;;;;;15.10;78.30;;;;;;5030871;28;19960;-71
2023/04/27 12:31:04;;;;;;;;;;;15.20;78.30;;;;;;5051757;28;20358;-72
2023/04/27 12:33:30;;;;;;;;;;;15.30;78.20;;;;;;5051414;28;19925;-74
2023/04/27 12:35:56;;;;;;;;;;;15.30;78.00;;;;;;5051555;28;19913;-76
2023/04/27 12:38:21;;;;;;;;;;;15.30;78.10;;;;;;5051977;28;20385;-74
2023/04/27 12:40:47;;;;;;;;;;;15.40;78.20;;;;;;5033507;28;19959;-73
2023/04/27 12:43:14;;;;;;;;;;;15.40;78.30;;;;;;5033640;28;20292;-73
2023/04/27 12:45:40;;;;;;;;;;;15.60;78.40;;;;;;5051126;28;19913;-71
2023/04/27 12:48:06;;;;;;;;;;;15.70;78.40;;;;;;5051148;28;20078;-73
2023/04/27 12:50:31;;;;;;;;;;;15.90;78.30;;;;;;5051266;28;20314;-72
2023/04/27 12:52:57;;;;;;;;;;;16.00;78.30;;;;;;5050693;28;19932;-74
2023/04/27 12:55:23;;;;;;;;;;;16.20;78.60;;;;;;5051245;28;19992;-73
2023/04/27 12:57:48;;;;;;;;;;;16.50;78.80;;;;;;5051814;28;19913;-75
2023/04/27 13:00:14;;;;;;;;;;;16.80;78.60;;;;;;5051155;28;19913;-76
2023/04/27 13:02:40;;;;;;;;;;;17.10;78.50;;;;;;5051311;28;19915;-72
2023/04/27 13:05:06;;;;;;;;;;;17.20;78.20;;;;;;5050912;28;19912;-74
2023/04/27 13:07:32;;;;;;;;;;;17.20;78.00;;;;;;5051157;28;19917;-74
2023/04/27 13:09:57;;;;;;;;;;;17.20;78.20;;;;;;5050714;28;20316;-70
2023/04/27 13:12:23;;;;;;;;;;;17.40;78.50;;;;;;5032438;28;19920;-71
2023/04/27 13:14:49;;;;;;;;;;;17.50;78.50;;;;;;5050391;28;19956;-72
2023/04/27 13:17:14;;;;;;;;;;;17.60;78.30;;;;;;5050511;28;19948;-74
2023/04/27 13:19:40;;;;;;;;;;;17.70;78.40;;;;;;5050004;28;20481;-70
2023/04/27 13:22:08;;;;;;;;;;;17.70;78.10;;;;;;5050850;28;19939;-72
2023/04/27 13:24:34;;;;;;;;;;;17.70;78.30;;;;;;5050563;28;19923;-72
2023/04/27 13:27:00;;;;;;;;;;;17.70;78.20;;;;;;5050095;28;19912;-72
2023/04/27 13:29:26;;;;;;;;;;;17.70;78.10;;;;;;5050277;28;19981;-70
2023/04/27 13:31:51;;;;;;;;;;;17.70;78.30;;;;;;5049850;28;20352;-72
2023/04/27 13:34:17;;;;;;;;;;;17.70;78.10;;;;;;5050320;28;19929;-71
2023/04/27 13:36:43;;;;;;;;;;;17.70;78.20;;;;;;5032415;28;19920;-71
2023/04/27 13:39:09;;;;;;;;;;;17.60;78.20;;;;;;5050089;28;19964;-71
2023/04/27 13:41:34;;;;;;;;;;;17.50;78.30;;;;;;5049875;28;19948;-71
2023/04/27 13:44:01;;;;;;;;;;;17.50;78.40;;;;;;5049615;28;19913;-70
2023/04/27 13:46:26;;;;;;;;;;;17.50;78.50;;;;;;5049874;28;20370;-71
2023/04/27 13:48:52;;;;;;;;;;;17.60;78.60;;;;;;5031913;28;20012;-71
2023/04/27 13:51:17;;;;;;;;;;;17.60;78.50;;;;;;5027812;28;19913;-71
2023/04/27 13:53:45;;;;;;;;;;;17.60;78.40;;;;;;5019679;28;19987;-71
2023/04/27 13:56:10;;;;;;;;;;;17.60;78.50;;;;;;5019671;28;19934;-72
2023/04/27 13:58:36;;;;;;;;;;;17.50;78.20;;;;;;5040346;28;19917;-71
2023/04/27 14:01:02;;;;;;;;;;;17.40;78.20;;;;;;5039288;28;20366;-70
2023/04/27 14:03:28;;;;;;;;;;;17.30;78.30;;;;;;5038609;28;19920;-71
2023/04/27 14:05:54;;;;;;;;;;;17.20;78.30;;;;;;5020131;28;19916;-70
2023/04/27 14:08:21;;;;;;;;;;;17.10;78.30;;;;;;5018379;28;19913;-72
2023/04/27 14:10:47;;;;;;;;;;;17.00;78.40;;;;;;5040813;28;19920;-70